Time;durP1;ratioP1;P1;durP2;ratioP2;P2;SDS_P1;SDS_P2;PMS_P1;PMS_P2;Temp;Humidity;BMP_temperature;BMP_pressure;BME280_temperature;BME280_humidity;BME280_pressure;Samples;Min_cycle;Max_cycle;Signal;HPM_P1;HPM_P2
2022/01/08 00:00:32;;;;;;;11.40;2.78;;;8.80;86.50;;;;;;5036832;28;20103;-78
2022/01/08 00:02:58;;;;;;;6.90;2.05;;;8.90;86.50;;;;;;5054559;28;20029;-78
2022/01/08 00:05:24;;;;;;;9.50;2.65;;;9.00;86.50;;;;;;5047464;28;20037;-78
2022/01/08 00:07:50;;;;;;;14.68;2.90;;;9.00;86.30;;;;;;5037243;28;20108;-78
2022/01/08 00:10:18;;;;;;;12.70;3.28;;;9.00;86.30;;;;;;5071249;28;20112;-78
2022/01/08 00:12:44;;;;;;;10.68;2.72;;;9.00;86.20;;;;;;5074530;28;20032;-78
2022/01/08 00:15:10;;;;;;;8.43;3.28;;;9.10;86.20;;;;;;5037073;28;20037;-78
2022/01/08 00:17:36;;;;;;;6.88;2.50;;;9.10;86.20;;;;;;5036671;28;20578;-78
2022/01/08 00:20:03;;;;;;;22.52;3.50;;;9.10;86.20;;;;;;5035764;28;20034;-78
2022/01/08 00:22:29;;;;;;;6.85;2.50;;;9.10;86.10;;;;;;5036983;28;20017;-78
2022/01/08 00:24:54;;;;;;;6.22;2.92;;;9.10;86.30;;;;;;5036480;28;20061;-78
2022/01/08 00:27:23;;;;;;;9.10;2.30;;;9.10;86.30;;;;;;5036957;28;20052;-78
2022/01/08 00:29:50;;;;;;;14.32;3.75;;;9.00;86.50;;;;;;5036594;28;20036;-78
2022/01/08 00:32:16;;;;;;;20.13;3.30;;;9.10;86.70;;;;;;5050267;28;20028;-78
2022/01/08 00:34:42;;;;;;;9.20;2.75;;;9.10;86.70;;;;;;5054510;28;20116;-78
2022/01/08 00:37:08;;;;;;;27.30;3.95;;;9.10;87.00;;;;;;5056207;28;20048;-78
2022/01/08 00:39:34;;;;;;;13.32;3.58;;;9.10;86.90;;;;;;5056523;28;20025;-78
2022/01/08 00:42:00;;;;;;;22.20;3.08;;;9.10;87.00;;;;;;5056409;28;20052;-78
2022/01/08 00:44:26;;;;;;;12.07;2.53;;;9.10;87.00;;;;;;5045656;28;20025;-78
2022/01/08 00:46:52;;;;;;;15.40;3.33;;;9.00;87.20;;;;;;5036671;28;20029;-78
2022/01/08 00:49:18;;;;;;;13.90;2.70;;;9.00;87.20;;;;;;5036599;28;20497;-78
2022/01/08 00:51:43;;;;;;;16.63;2.83;;;9.10;87.20;;;;;;5036423;28;20096;-78
2022/01/08 00:54:09;;;;;;;14.00;2.50;;;9.10;87.10;;;;;;5036232;28;20052;-77
2022/01/08 00:56:35;;;;;;;12.63;3.20;;;9.10;87.00;;;;;;5036295;28;20439;-77
2022/01/08 00:59:03;;;;;;;16.75;3.97;;;9.10;87.10;;;;;;5036463;28;20025;-77
2022/01/08 01:01:28;;;;;;;14.55;2.58;;;9.10;87.50;;;;;;5042459;28;20021;-77
2022/01/08 01:03:54;;;;;;;12.38;3.08;;;9.20;87.60;;;;;;5050188;28;20060;-77
2022/01/08 01:06:20;;;;;;;13.90;3.08;;;9.20;87.60;;;;;;5036565;28;20029;-77
2022/01/08 01:08:46;;;;;;;13.88;3.03;;;9.20;87.40;;;;;;5045633;28;20028;-77
2022/01/08 01:11:11;;;;;;;16.70;3.22;;;9.30;87.30;;;;;;5075033;28;20066;-77
2022/01/08 01:13:37;;;;;;;23.88;3.90;;;9.30;87.20;;;;;;5052970;28;20030;-77
2022/01/08 01:16:03;;;;;;;13.45;2.72;;;9.20;87.20;;;;;;5035897;28;20038;-77
2022/01/08 01:18:36;;;;;;;15.10;2.95;;;9.30;87.10;;;;;;5035692;28;20026;-77
2022/01/08 01:21:02;;;;;;;12.23;2.85;;;9.20;87.00;;;;;;5035993;28;20033;-77
2022/01/08 01:23:34;;;;;;;15.80;4.10;;;9.20;86.90;;;;;;5035724;28;20046;-77
2022/01/08 01:26:03;;;;;;;15.63;3.20;;;9.10;87.00;;;;;;5035837;28;20539;-77
2022/01/08 01:47:13;;;;;;;14.82;3.22;;;9.30;86.50;;;;;;5035481;28;20578;-77
2022/01/08 01:49:41;;;;;;;16.63;3.10;;;9.20;86.60;;;;;;5035488;28;20029;-77
2022/01/08 01:52:08;;;;;;;14.32;3.38;;;9.20;86.40;;;;;;5035403;28;20116;-76
2022/01/08 01:54:35;;;;;;;19.10;3.58;;;9.30;86.50;;;;;;5035417;28;20033;-77
2022/01/08 01:57:03;;;;;;;17.73;2.88;;;9.20;86.40;;;;;;5035181;28;20018;-77
2022/01/08 01:59:31;;;;;;;13.13;2.70;;;9.20;86.40;;;;;;5035342;28;20460;-77
2022/01/08 02:01:57;;;;;;;15.63;3.55;;;9.20;86.40;;;;;;5035247;28;20037;-77
2022/01/08 02:04:26;;;;;;;13.52;3.35;;;9.20;86.40;;;;;;5035308;28;20029;-77
2022/01/08 02:06:51;;;;;;;19.15;3.80;;;9.20;86.40;;;;;;5034966;28;20033;-77
2022/01/08 02:09:18;;;;;;;20.08;3.75;;;9.20;86.50;;;;;;5041326;28;20875;-77
2022/01/08 02:12:00;;;;;;;15.68;3.63;;;9.20;86.40;;;;;;5035055;28;20025;-77
2022/01/08 02:14:27;;;;;;;20.30;3.28;;;9.20;86.30;;;;;;5034924;28;20384;-77
2022/01/08 02:16:53;;;;;;;11.15;3.13;;;9.10;86.30;;;;;;5034789;28;20107;-77
2022/01/08 02:19:19;;;;;;;22.75;3.65;;;9.10;86.30;;;;;;5035086;28;20025;-77
2022/01/08 02:21:56;;;;;;;17.40;3.22;;;9.10;86.40;;;;;;5035079;28;20112;-77
2022/01/08 02:24:23;;;;;;;19.58;3.05;;;9.10;86.40;;;;;;5037937;28;20120;-77
2022/01/08 02:26:55;;;;;;;9.65;2.50;;;9.10;86.40;;;;;;5038661;28;20377;-77
2022/01/08 02:29:23;;;;;;;16.20;4.00;;;9.10;86.30;;;;;;5035054;28;20491;-77
2022/01/08 02:31:58;;;;;;;16.08;3.15;;;9.10;86.40;;;;;;5034729;28;20109;-77
2022/01/08 02:34:26;;;;;;;8.00;2.63;;;9.10;86.30;;;;;;5034145;28;20029;-76
2022/01/08 02:36:52;;;;;;;16.23;4.03;;;9.00;86.20;;;;;;5034981;28;20022;-77
2022/01/08 02:39:18;;;;;;;11.05;2.83;;;9.00;86.30;;;;;;5034787;28;20025;-77
2022/01/08 02:41:44;;;;;;;21.35;3.67;;;8.90;86.40;;;;;;5038583;28;20032;-77
2022/01/08 02:44:12;;;;;;;28.13;3.58;;;8.80;86.60;;;;;;5039067;28;20152;-77
2022/01/08 02:46:42;;;;;;;23.45;4.50;;;8.80;86.50;;;;;;5038758;28;20025;-77
2022/01/08 02:49:08;;;;;;;24.93;4.13;;;8.80;86.60;;;;;;5039097;28;20033;-77
2022/01/08 02:51:35;;;;;;;16.77;3.22;;;8.80;86.60;;;;;;5038435;28;20235;-77
2022/01/08 02:54:06;;;;;;;20.83;3.28;;;8.80;86.50;;;;;;5038544;28;20049;-77
2022/01/08 02:56:32;;;;;;;18.45;4.13;;;8.70;86.70;;;;;;5037676;28;20029;-77
2022/01/08 02:58:58;;;;;;;20.90;3.30;;;8.80;86.60;;;;;;5038571;28;20104;-77
2022/01/08 03:01:24;;;;;;;13.30;2.58;;;8.80;86.60;;;;;;5037150;28;20057;-77
2022/01/08 03:03:52;;;;;;;18.50;3.75;;;8.80;86.40;;;;;;5038550;28;20068;-77
2022/01/08 03:06:17;;;;;;;17.80;3.17;;;8.80;86.40;;;;;;5038624;28;20037;-77
2022/01/08 03:08:43;;;;;;;20.23;3.30;;;8.80;86.40;;;;;;5042962;28;20027;-77
2022/01/08 03:11:09;;;;;;;20.02;3.17;;;8.80;86.20;;;;;;5038311;28;20029;-77
2022/01/08 03:13:34;;;;;;;29.52;4.05;;;8.80;86.40;;;;;;5038297;28;20076;-78
2022/01/08 03:16:00;;;;;;;10.98;2.75;;;8.80;86.50;;;;;;5036879;28;20026;-78
2022/01/08 03:18:28;;;;;;;18.73;3.05;;;8.90;86.40;;;;;;5038246;28;20022;-77
2022/01/08 03:21:12;;;;;;;20.35;3.15;;;8.90;86.40;;;;;;5040355;28;20037;-77
2022/01/08 03:23:52;;;;;;;22.52;3.50;;;8.90;86.40;;;;;;5045384;28;20041;-77
2022/01/08 03:26:20;;;;;;;16.80;2.90;;;9.00;86.40;;;;;;5036812;28;20043;-77
2022/01/08 03:28:46;;;;;;;14.98;2.75;;;9.00;86.40;;;;;;5038007;28;20076;-77
2022/01/08 03:31:13;;;;;;;14.13;3.25;;;9.00;86.40;;;;;;5037988;28;20112;-77
2022/01/08 03:33:40;;;;;;;20.95;3.28;;;9.00;86.40;;;;;;5045245;28;20021;-76
2022/01/08 03:36:06;;;;;;;24.33;3.67;;;9.00;86.30;;;;;;5037965;28;20548;-77
2022/01/08 03:38:32;;;;;;;13.50;3.10;;;9.00;86.20;;;;;;5037994;28;20014;-77
2022/01/08 03:41:11;;;;;;;;;;;;;;;;;;;;;
2022/01/08 03:43:37;;;;;;;16.25;3.72;;;9.00;86.40;;;;;;5037733;28;20028;-77
2022/01/08 03:46:04;;;;;;;21.95;3.42;;;9.00;86.60;;;;;;5036001;28;20029;-77
2022/01/08 03:51:17;;;;;;;9.35;3.08;;;9.10;86.60;;;;;;5045777;28;20041;-77
2022/01/08 03:53:44;;;;;;;17.88;3.38;;;9.00;86.50;;;;;;5037217;28;20040;-77
2022/01/08 03:56:09;;;;;;;13.23;3.05;;;8.90;86.50;;;;;;5037727;28;20025;-77
2022/01/08 03:58:35;;;;;;;20.90;3.78;;;9.00;86.60;;;;;;5037534;28;20068;-77
2022/01/08 04:01:01;;;;;;;22.23;3.28;;;9.00;86.50;;;;;;5036801;28;20140;-77
2022/01/08 04:03:47;;;;;;;12.02;3.65;;;9.00;86.20;;;;;;5037343;28;20036;-77
2022/01/08 04:06:12;;;;;;;20.58;4.63;;;8.80;86.40;;;;;;5052895;28;20029;-77
2022/01/08 04:08:38;;;;;;;19.40;3.75;;;8.80;86.60;;;;;;5044605;28;20092;-77
2022/01/08 04:11:04;;;;;;;15.07;3.85;;;8.70;86.80;;;;;;5077243;28;20032;-77
2022/01/08 04:13:33;;;;;;;13.63;2.75;;;8.70;86.90;;;;;;5058485;28;20617;-77
2022/01/08 04:16:09;;;;;;;16.97;4.47;;;8.70;87.00;;;;;;5057260;28;20025;-77
2022/01/08 04:18:34;;;;;;;17.02;3.30;;;8.70;86.90;;;;;;5057257;28;20021;-77
2022/01/08 04:23:44;;;;;;;20.10;5.03;;;8.80;87.00;;;;;;5036934;28;20103;-77
2022/01/08 04:26:10;;;;;;;15.88;3.45;;;8.90;86.90;;;;;;5037105;28;20025;-77
2022/01/08 04:28:36;;;;;;;19.33;3.08;;;8.80;86.70;;;;;;5036903;28;20483;-77
2022/01/08 04:31:01;;;;;;;15.65;3.85;;;8.90;86.70;;;;;;5036599;28;20029;-77
2022/01/08 04:33:27;;;;;;;19.23;3.42;;;8.80;86.60;;;;;;5036744;28;20072;-77
2022/01/08 04:35:55;;;;;;;17.83;3.47;;;8.80;86.70;;;;;;5036756;28;20021;-77
2022/01/08 04:38:21;;;;;;;16.77;3.08;;;8.80;86.70;;;;;;5046795;28;20720;-77
2022/01/08 04:40:46;;;;;;;22.83;3.13;;;8.70;86.60;;;;;;5056650;28;20021;-77
2022/01/08 04:43:12;;;;;;;18.30;3.20;;;8.80;86.80;;;;;;5056625;28;20055;-77
2022/01/08 04:45:38;;;;;;;15.95;3.00;;;8.70;86.80;;;;;;5049893;28;20112;-77
2022/01/08 04:48:04;;;;;;;11.32;2.88;;;8.70;86.80;;;;;;5036605;28;20037;-77
2022/01/08 04:50:30;;;;;;;14.38;2.88;;;8.70;86.90;;;;;;5036764;28;20021;-77
2022/01/08 04:52:56;;;;;;;18.38;3.15;;;8.70;86.70;;;;;;5036580;28;20064;-77
2022/01/08 04:55:22;;;;;;;20.95;3.55;;;8.70;86.90;;;;;;5036144;28;20037;-77
2022/01/08 04:57:48;;;;;;;14.77;2.83;;;8.70;86.90;;;;;;5036479;28;20450;-77
2022/01/08 05:00:16;;;;;;;15.50;3.38;;;8.70;86.80;;;;;;5036372;28;20107;-77
2022/01/08 05:02:42;;;;;;;19.83;3.05;;;8.70;86.80;;;;;;5036193;28;20047;-77
2022/01/08 05:05:08;;;;;;;18.08;3.42;;;8.70;86.90;;;;;;5033893;28;20026;-77
2022/01/08 05:07:34;;;;;;;20.27;3.58;;;8.60;86.80;;;;;;5036321;28;20029;-79
2022/01/08 05:09:59;;;;;;;11.70;3.08;;;8.60;87.00;;;;;;5065923;28;20066;-79
2022/01/08 05:12:25;;;;;;;28.02;3.42;;;8.60;86.90;;;;;;5075927;28;20028;-77
2022/01/08 05:14:51;;;;;;;15.50;2.92;;;8.60;86.80;;;;;;5039004;28;20029;-79
2022/01/08 05:17:17;;;;;;;14.00;2.67;;;8.60;86.90;;;;;;5035639;28;20028;-79
2022/01/08 05:19:47;;;;;;;15.80;3.67;;;8.50;86.80;;;;;;5036004;28;20022;-78
2022/01/08 05:22:23;;;;;;;17.55;3.25;;;8.60;86.80;;;;;;5035627;28;20025;-78
2022/01/08 05:24:49;;;;;;;18.05;2.95;;;8.60;86.80;;;;;;5035802;28;20044;-78
2022/01/08 05:27:17;;;;;;;23.60;3.28;;;8.60;86.80;;;;;;5034411;28;20033;-79
2022/01/08 05:29:44;;;;;;;16.40;3.53;;;8.60;86.80;;;;;;5034457;28;20078;-79
2022/01/08 05:32:16;;;;;;;13.60;2.47;;;8.60;86.70;;;;;;5047945;28;20087;-78
2022/01/08 05:34:54;;;;;;;13.80;2.88;;;8.60;86.70;;;;;;5051429;28;20427;-78
2022/01/08 05:37:20;;;;;;;14.90;2.78;;;8.60;86.60;;;;;;5055550;28;20032;-78
2022/01/08 05:39:47;;;;;;;12.63;3.20;;;8.60;86.50;;;;;;5048724;28;20092;-79
2022/01/08 05:42:13;;;;;;;10.60;2.95;;;8.60;86.60;;;;;;5035756;28;20021;-79
2022/01/08 05:44:39;;;;;;;14.35;2.55;;;8.50;86.60;;;;;;5050783;28;20041;-78
2022/01/08 05:47:05;;;;;;;17.58;3.10;;;8.50;86.70;;;;;;5035441;28;20518;-79
2022/01/08 05:49:30;;;;;;;22.30;2.95;;;8.50;86.70;;;;;;5035382;28;20021;-78
2022/01/08 05:51:58;;;;;;;13.65;2.53;;;8.50;86.80;;;;;;5035179;28;20068;-78
2022/01/08 05:54:24;;;;;;;11.18;3.45;;;8.50;86.90;;;;;;5033980;28;20037;-79
2022/01/08 05:56:51;;;;;;;19.15;3.03;;;8.40;86.90;;;;;;5033943;28;20047;-79
2022/01/08 05:59:17;;;;;;;25.90;3.60;;;8.40;87.10;;;;;;5035021;28;20024;-77
2022/01/08 06:01:43;;;;;;;13.60;3.47;;;8.30;87.40;;;;;;5033790;28;20021;-78
2022/01/08 06:04:08;;;;;;;18.17;3.78;;;8.30;87.40;;;;;;5053022;28;20103;-77
2022/01/08 06:06:35;;;;;;;25.70;3.72;;;8.30;87.60;;;;;;5054966;28;20028;-77
2022/01/08 06:09:02;;;;;;;19.38;3.15;;;8.30;87.60;;;;;;5054917;28;20112;-77
2022/01/08 06:11:27;;;;;;;17.23;3.35;;;8.30;87.40;;;;;;5053532;28;20029;-77
2022/01/08 06:13:53;;;;;;;15.15;3.45;;;8.30;87.40;;;;;;5041402;28;20022;-77
2022/01/08 06:16:19;;;;;;;17.58;3.08;;;8.30;87.50;;;;;;5034559;28;20029;-77
2022/01/08 06:18:45;;;;;;;21.13;3.63;;;8.30;87.30;;;;;;5033698;28;20033;-77
2022/01/08 06:21:10;;;;;;;10.88;2.95;;;8.30;87.20;;;;;;5034992;28;20026;-78
2022/01/08 06:23:36;;;;;;;10.80;3.13;;;8.30;86.90;;;;;;5034790;28;20046;-77
2022/01/08 06:26:05;;;;;;;17.02;3.53;;;8.30;87.30;;;;;;5034861;28;20052;-77
2022/01/08 06:28:31;;;;;;;19.92;3.25;;;8.30;87.20;;;;;;5033950;28;20041;-77
2022/01/08 06:30:56;;;;;;;18.63;3.65;;;8.30;87.30;;;;;;5033150;28;20058;-78
2022/01/08 06:33:22;;;;;;;21.02;3.92;;;8.30;87.30;;;;;;5035112;28;20607;-79
2022/01/08 06:35:48;;;;;;;22.52;3.05;;;8.30;87.50;;;;;;5034854;28;20112;-78
2022/01/08 06:38:15;;;;;;;15.85;3.40;;;8.30;87.30;;;;;;5039767;28;20021;-78
2022/01/08 06:40:41;;;;;;;15.88;3.13;;;8.30;87.30;;;;;;5045414;28;20025;-78
2022/01/08 06:43:12;;;;;;;22.38;3.25;;;8.30;87.40;;;;;;5044153;28;20033;-78
2022/01/08 06:45:39;;;;;;;16.75;2.67;;;8.30;87.40;;;;;;5044138;28;20025;-80
2022/01/08 06:48:05;;;;;;;16.58;3.30;;;8.30;87.60;;;;;;5046237;28;20442;-79
2022/01/08 06:50:30;;;;;;;17.88;3.33;;;8.20;87.80;;;;;;5044259;28;20022;-79
2022/01/08 06:52:56;;;;;;;12.30;3.20;;;8.40;88.00;;;;;;5044406;28;20462;-83
2022/01/08 06:55:23;;;;;;;19.08;3.22;;;8.40;87.90;;;;;;5042651;28;20047;-77
2022/01/08 06:57:49;;;;;;;14.20;4.10;;;8.50;88.10;;;;;;5043901;28;20013;-79
2022/01/08 07:00:15;;;;;;;19.10;2.88;;;8.50;88.20;;;;;;5045172;28;20036;-77
2022/01/08 07:02:41;;;;;;;12.00;2.60;;;8.50;88.00;;;;;;5044812;28;20044;-79
2022/01/08 07:05:07;;;;;;;13.32;3.40;;;8.50;88.30;;;;;;5031140;28;20025;-79
2022/01/08 07:07:32;;;;;;;12.98;2.47;;;8.50;88.20;;;;;;5044648;28;20043;-78
2022/01/08 07:47:19;;;;;;;8.98;2.30;;;7.60;92.70;;;;;;5071065;27;20398;-84
2022/01/08 07:49:45;;;;;;;14.93;3.92;;;7.70;92.50;;;;;;5071841;28;20612;-84
2022/01/08 07:52:10;;;;;;;11.80;3.17;;;8.00;92.10;;;;;;5072027;28;20167;-82
2022/01/08 07:54:36;;;;;;;11.80;2.38;;;8.30;91.40;;;;;;5069917;28;20100;-82
2022/01/08 07:57:11;;;;;;;15.07;2.90;;;8.60;90.80;;;;;;5051186;28;20040;-82
2022/01/08 07:59:37;;;;;;;10.40;2.97;;;8.80;90.10;;;;;;5046932;28;20074;-81
2022/01/08 08:02:03;;;;;;;12.07;3.75;;;8.90;89.40;;;;;;5044436;28;20092;-83
2022/01/08 08:04:28;;;;;;;9.60;2.55;;;9.10;89.20;;;;;;5060801;28;20009;-83
2022/01/08 08:06:54;;;;;;;13.75;2.85;;;9.10;88.50;;;;;;5045811;28;20491;-83
2022/01/08 08:09:20;;;;;;;14.85;3.70;;;9.20;88.50;;;;;;5062237;28;20013;-84
2022/01/08 08:11:46;;;;;;;20.55;2.75;;;9.20;88.30;;;;;;5060330;28;20053;-82
2022/01/08 08:14:12;;;;;;;23.23;4.30;;;9.20;88.20;;;;;;5060872;28;20040;-83
2022/01/08 08:16:38;;;;;;;25.98;4.53;;;9.20;88.00;;;;;;5044039;28;20036;-83
2022/01/08 08:19:03;;;;;;;16.42;2.75;;;9.20;88.10;;;;;;5061785;28;20372;-83
2022/01/08 08:21:30;;;;;;;23.77;4.15;;;9.30;88.00;;;;;;5058991;28;20084;-84
2022/01/08 08:23:55;;;;;;;17.13;2.90;;;9.20;88.00;;;;;;5060905;28;20021;-84
2022/01/08 08:26:21;;;;;;;13.70;3.92;;;9.30;88.00;;;;;;5059122;28;20098;-84
2022/01/08 08:28:47;;;;;;;12.25;3.63;;;9.30;87.80;;;;;;5059898;28;20048;-83
2022/01/08 08:31:20;;;;;;;12.18;3.58;;;9.30;87.80;;;;;;5059899;28;20485;-84
2022/01/08 08:33:45;;;;;;;12.55;4.32;;;9.30;88.10;;;;;;5047591;28;20534;-84
2022/01/08 10:22:41;;;;;;;5.57;2.13;;;9.00;92.60;;;;;;5068672;28;20405;-86
2022/01/08 10:25:13;;;;;;;17.63;2.67;;;9.10;92.60;;;;;;5067714;28;20024;-86
2022/01/08 10:27:38;;;;;;;10.75;2.35;;;9.30;92.10;;;;;;5063660;28;20582;-82
2022/01/08 10:30:04;;;;;;;7.15;2.15;;;9.70;91.70;;;;;;5065997;28;20120;-83
2022/01/08 10:32:30;;;;;;;15.52;2.92;;;9.80;90.90;;;;;;5069947;28;20033;-83
2022/01/08 10:34:56;;;;;;;13.73;2.65;;;10.00;90.50;;;;;;5070175;28;20095;-83
2022/01/08 10:37:21;;;;;;;12.07;2.40;;;10.20;90.00;;;;;;5067335;28;20020;-83
2022/01/08 10:39:54;;;;;;;11.88;2.95;;;10.30;89.60;;;;;;5070597;28;20025;-83
2022/01/08 10:42:21;;;;;;;16.25;3.35;;;10.30;89.30;;;;;;5070890;28;20078;-83
2022/01/08 10:44:49;;;;;;;13.65;2.35;;;10.30;89.20;;;;;;5053684;28;20144;-84
2022/01/08 10:47:21;;;;;;;17.63;3.42;;;10.40;89.00;;;;;;5066846;28;20477;-84
2022/01/08 10:50:05;;;;;;;12.68;2.08;;;10.40;88.60;;;;;;5059885;28;20051;-81
2022/01/08 10:52:42;;;;;;;8.95;2.38;;;10.50;88.60;;;;;;5051541;28;20184;-80
2022/01/08 10:55:07;;;;;;;14.20;2.55;;;10.50;88.50;;;;;;5066408;28;20028;-81
2022/01/08 10:57:39;;;;;;;10.07;2.25;;;10.50;88.40;;;;;;5072333;28;20037;-81
2022/01/08 11:00:13;;;;;;;11.27;2.20;;;10.50;88.30;;;;;;5068094;28;20033;-84
2022/01/08 11:02:41;;;;;;;14.13;2.35;;;10.50;88.20;;;;;;5070407;28;20029;-82
2022/01/08 11:05:08;;;;;;;20.80;3.33;;;10.50;88.30;;;;;;5067967;28;20372;-80
2022/01/08 11:07:36;;;;;;;14.20;2.53;;;10.50;88.30;;;;;;5063554;28;20045;-85
2022/01/08 11:10:12;;;;;;;11.73;2.58;;;10.50;88.00;;;;;;5068020;28;20056;-83
2022/01/08 11:12:41;;;;;;;15.15;2.83;;;10.60;88.00;;;;;;5060198;28;20029;-87
2022/01/08 11:17:47;;;;;;;10.75;2.10;;;10.60;87.70;;;;;;5060802;28;20060;-82
2022/01/08 11:20:19;;;;;;;12.73;2.60;;;10.70;87.70;;;;;;5064928;28;20029;-83
2022/01/08 11:22:50;;;;;;;6.15;2.47;;;10.70;87.50;;;;;;5048418;28;20072;-86
2022/01/08 11:25:17;;;;;;;13.48;3.25;;;10.70;87.70;;;;;;5053531;28;20039;-87
2022/01/08 11:28:08;;;;;;;12.40;2.08;;;10.70;88.10;;;;;;5049881;28;20639;-84
2022/01/08 11:30:44;;;;;;;14.75;3.58;;;10.70;88.00;;;;;;5049856;28;20441;-85
2022/01/08 11:33:18;;;;;;;7.40;2.35;;;10.80;88.80;;;;;;5045349;28;20079;-82
2022/01/08 11:35:44;;;;;;;13.98;2.10;;;10.80;88.50;;;;;;5038498;28;20828;-82
2022/01/08 11:38:12;;;;;;;7.05;2.05;;;10.80;88.20;;;;;;5035989;28;20132;-87
2022/01/08 11:40:41;;;;;;;14.85;2.47;;;10.70;88.10;;;;;;5052900;28;20088;-83
2022/01/08 11:43:10;;;;;;;15.52;2.15;;;10.70;88.50;;;;;;5050927;28;20104;-80
2022/01/08 11:45:39;;;;;;;16.45;3.45;;;10.70;88.50;;;;;;5054717;28;20527;-85
2022/01/08 11:48:08;;;;;;;8.07;2.03;;;10.70;88.80;;;;;;5039420;28;20056;-81
2022/01/08 11:50:35;;;;;;;6.37;1.70;;;10.80;88.60;;;;;;5062705;28;20114;-81
2022/01/08 11:53:23;;;;;;;11.10;2.22;;;10.80;88.70;;;;;;5036464;28;20034;-80
2022/01/08 11:56:04;;;;;;;8.75;2.58;;;10.80;88.30;;;;;;5043168;28;20021;-82
2022/01/08 11:58:31;;;;;;;8.38;1.48;;;10.80;88.10;;;;;;5044300;28;20028;-77
2022/01/08 12:01:05;;;;;;;10.13;2.65;;;10.80;87.80;;;;;;5046699;28;20028;-78
2022/01/08 12:03:41;;;;;;;8.38;2.03;;;10.80;88.10;;;;;;5045786;28;20056;-76
2022/01/08 12:06:22;;;;;;;8.85;2.13;;;10.80;88.00;;;;;;5037547;28;20083;-84
2022/01/08 12:09:26;;;;;;;7.57;1.75;;;10.90;88.10;;;;;;5040459;28;20029;-77
2022/01/08 12:11:56;;;;;;;4.80;1.35;;;10.90;87.90;;;;;;5049566;28;20032;-77
2022/01/08 12:14:27;;;;;;;8.25;2.05;;;10.90;87.80;;;;;;5048285;28;20029;-76
2022/01/08 12:16:54;;;;;;;14.68;1.95;;;11.00;88.00;;;;;;5053357;28;20064;-76
2022/01/08 12:19:27;;;;;;;6.22;1.77;;;11.10;88.00;;;;;;5042262;28;20025;-80
2022/01/08 12:21:53;;;;;;;6.60;1.73;;;11.10;87.70;;;;;;5037117;28;20120;-78
2022/01/08 12:24:27;;;;;;;9.13;1.98;;;11.10;87.70;;;;;;5042845;28;20059;-83
2022/01/08 12:26:55;;;;;;;8.18;1.77;;;11.10;87.60;;;;;;5053148;28;20022;-77
2022/01/08 12:29:41;;;;;;;9.00;2.05;;;11.10;87.90;;;;;;5041105;28;20026;-77
2022/01/08 12:32:29;;;;;;;8.18;1.52;;;11.20;87.70;;;;;;5037542;28;20029;-76
2022/01/08 12:35:02;;;;;;;3.75;1.20;;;11.20;87.60;;;;;;5049070;28;20079;-75
2022/01/08 12:37:39;;;;;;;7.60;1.63;;;11.20;87.50;;;;;;5045515;28;20033;-75
2022/01/08 12:40:07;;;;;;;7.50;1.65;;;11.20;87.70;;;;;;5044625;28;20026;-78
2022/01/08 12:42:35;;;;;;;4.05;1.27;;;11.10;87.50;;;;;;5045687;28;20081;-78
2022/01/08 12:45:15;;;;;;;11.10;2.28;;;11.20;87.70;;;;;;5036973;28;20025;-80
2022/01/08 12:48:08;;;;;;;4.63;1.45;;;11.20;87.90;;;;;;5038886;28;20151;-78
2022/01/08 12:50:55;;;;;;;7.50;1.48;;;11.20;87.50;;;;;;5053923;28;20037;-88
2022/01/08 12:53:28;;;;;;;5.22;2.10;;;11.20;87.60;;;;;;5047116;28;20112;-88
2022/01/08 12:55:53;;;;;;;7.47;1.55;;;11.20;88.00;;;;;;5048879;28;20033;-78
2022/01/08 12:58:23;;;;;;;4.85;1.73;;;11.20;87.60;;;;;;5049186;28;20552;-78
2022/01/08 13:00:56;;;;;;;5.90;1.58;;;11.20;87.80;;;;;;5043570;28;20094;-78
2022/01/08 13:03:46;;;;;;;8.65;1.58;;;11.20;87.90;;;;;;5050209;28;20650;-77
2022/01/08 13:06:12;;;;;;;;;;;11.20;88.10;;;;;;5047893;28;20079;-79
2022/01/08 13:08:38;;;;;;;8.00;2.15;;;11.20;88.40;;;;;;5051752;28;19908;-77
2022/01/08 13:11:06;;;;;;;6.35;1.83;;;11.20;88.60;;;;;;5049101;28;20065;-78
2022/01/08 13:13:42;;;;;;;6.57;1.70;;;11.10;88.50;;;;;;5051701;28;20123;-79
2022/01/08 13:16:26;;;;;;;5.22;1.60;;;11.10;88.90;;;;;;5050513;28;20402;-79
2022/01/08 13:19:09;;;;;;;5.43;1.40;;;11.00;89.20;;;;;;5050721;28;20076;-78
2022/01/08 13:21:39;;;;;;;4.50;1.38;;;11.10;89.30;;;;;;5050063;28;20545;-77
2022/01/08 13:24:28;;;;;;;4.35;1.35;;;11.10;89.40;;;;;;5048922;28;20013;-81
2022/01/08 13:27:11;;;;;;;3.72;1.90;;;11.10;89.40;;;;;;5047995;28;20145;-78
2022/01/08 13:29:42;;;;;;;5.45;1.52;;;11.10;89.20;;;;;;5049372;28;20395;-78
2022/01/08 13:32:10;;;;;;;11.18;2.20;;;11.10;89.40;;;;;;5042370;28;20486;-77
2022/01/08 13:34:38;;;;;;;7.45;2.03;;;11.10;89.50;;;;;;5038552;28;20030;-77
2022/01/08 13:37:13;;;;;;;11.73;2.17;;;11.10;89.30;;;;;;5040774;28;20128;-78
2022/01/08 13:39:58;;;;;;;6.95;1.95;;;11.10;89.20;;;;;;5050170;28;20017;-78
2022/01/08 13:42:36;;;;;;;8.93;1.90;;;11.10;89.20;;;;;;5036932;28;20405;-78
2022/01/08 13:45:18;;;;;;;6.53;1.75;;;11.20;89.10;;;;;;5033360;28;20064;-78
2022/01/08 13:47:54;;;;;;;7.13;1.83;;;11.20;88.90;;;;;;5040649;28;20063;-77
2022/01/08 13:50:28;;;;;;;9.07;1.50;;;11.10;89.50;;;;;;5047326;28;20029;-78
2022/01/08 13:52:59;;;;;;;4.50;1.20;;;11.10;89.20;;;;;;5048560;28;21020;-78
2022/01/08 13:55:30;;;;;;;8.60;2.08;;;11.10;89.40;;;;;;5037304;28;20392;-77
2022/01/08 13:58:18;;;;;;;3.72;1.45;;;11.20;89.50;;;;;;5058989;28;20504;-78
2022/01/08 14:00:53;;;;;;;6.80;1.20;;;11.20;89.70;;;;;;5039388;28;20030;-77
2022/01/08 14:03:38;;;;;;;2.85;0.80;;;11.20;89.70;;;;;;5043404;28;20037;-78
2022/01/08 14:06:04;;;;;;;5.35;2.13;;;11.20;89.90;;;;;;5044530;28;20116;-78
2022/01/08 14:08:31;;;;;;;3.33;1.35;;;11.20;90.10;;;;;;5038213;28;20053;-78
2022/01/08 14:11:00;;;;;;;4.82;1.33;;;11.30;89.80;;;;;;5060095;28;20462;-78
2022/01/08 14:13:46;;;;;;;3.95;1.30;;;11.20;89.50;;;;;;5058984;28;20009;-78
2022/01/08 14:16:12;;;;;;;5.97;1.08;;;11.30;89.80;;;;;;5034366;28;20029;-78
2022/01/08 14:18:39;;;;;;;3.17;1.48;;;11.20;89.80;;;;;;5033103;28;20021;-78
2022/01/08 14:21:18;;;;;;;4.60;1.23;;;11.20;90.10;;;;;;5040638;28;20047;-76
2022/01/08 14:23:46;;;;;;;6.85;2.05;;;11.20;89.80;;;;;;5033360;28;20030;-78
2022/01/08 14:26:23;;;;;;;3.35;1.10;;;11.20;89.80;;;;;;5032117;28;20032;-78
2022/01/08 14:29:12;;;;;;;3.40;1.20;;;11.30;89.30;;;;;;5033579;28;20480;-78
2022/01/08 14:31:39;;;;;;;1.65;1.38;;;11.40;89.20;;;;;;5032674;28;20557;-77
2022/01/08 14:34:14;;;;;;;3.65;1.30;;;11.50;89.10;;;;;;5032835;28;20029;-77
2022/01/08 14:36:45;;;;;;;10.60;1.77;;;11.50;88.90;;;;;;5032766;28;20681;-77
2022/01/08 14:39:16;;;;;;;3.55;1.05;;;11.50;89.20;;;;;;5032712;28;20025;-77
2022/01/08 14:41:45;;;;;;;0.60;0.55;;;11.50;89.20;;;;;;5031847;28;20038;-77
2022/01/08 14:44:11;;;;;;;1.65;0.90;;;11.40;89.20;;;;;;5030963;28;20034;-77
2022/01/08 14:46:47;;;;;;;1.35;0.70;;;11.40;89.50;;;;;;5032980;28;20389;-77
2022/01/08 14:49:13;;;;;;;2.45;0.82;;;11.40;89.60;;;;;;5032686;28;20025;-77
2022/01/08 14:51:38;;;;;;;3.28;1.23;;;11.40;89.50;;;;;;5036426;28;20037;-80
2022/01/08 14:54:08;;;;;;;2.88;1.77;;;11.40;89.70;;;;;;5045679;28;20102;-80
2022/01/08 14:56:39;;;;;;;1.95;1.05;;;11.40;89.90;;;;;;5033731;28;20518;-79
2022/01/08 14:59:05;;;;;;;3.13;1.48;;;11.40;89.90;;;;;;5043774;28;20122;-80
2022/01/08 15:01:35;;;;;;;1.27;0.98;;;11.30;90.00;;;;;;5046310;28;20036;-85
2022/01/08 15:04:01;;;;;;;3.42;0.95;;;11.30;90.00;;;;;;5040906;28;20448;-78
2022/01/08 15:06:27;;;;;;;5.47;1.00;;;11.40;90.30;;;;;;5044820;28;20037;-78
2022/01/08 15:08:54;;;;;;;3.90;1.38;;;11.40;90.20;;;;;;5049788;28;20041;-77
2022/01/08 15:11:20;;;;;;;2.78;1.20;;;11.40;90.30;;;;;;5042703;28;20059;-77
2022/01/08 15:13:46;;;;;;;4.15;1.05;;;11.40;90.20;;;;;;5053834;28;20109;-77
2022/01/08 15:16:12;;;;;;;2.97;0.98;;;11.40;90.40;;;;;;5051450;28;20067;-77
2022/01/08 15:18:39;;;;;;;5.10;1.55;;;11.40;90.30;;;;;;5042650;28;20037;-77
2022/01/08 15:21:05;;;;;;;4.90;1.90;;;11.40;90.40;;;;;;5036564;28;20048;-77
2022/01/08 15:23:31;;;;;;;2.25;0.80;;;11.40;90.30;;;;;;5040543;28;20052;-79
2022/01/08 15:25:57;;;;;;;6.90;1.58;;;11.40;90.40;;;;;;5045980;28;20025;-79
2022/01/08 15:28:25;;;;;;;3.95;1.30;;;11.50;90.40;;;;;;5046155;28;20029;-78
2022/01/08 15:30:51;;;;;;;4.43;1.30;;;11.40;90.30;;;;;;5046870;28;20028;-78
2022/01/08 15:33:17;;;;;;;3.60;0.93;;;11.40;90.30;;;;;;5048536;28;20031;-78
2022/01/08 15:35:48;;;;;;;4.25;1.60;;;11.50;90.20;;;;;;5052049;28;20555;-79
2022/01/08 15:38:13;;;;;;;;;;;11.40;90.30;;;;;;5047449;28;20040;-78
2022/01/08 15:40:39;;;;;;;4.80;1.70;;;11.40;90.60;;;;;;5054997;28;20302;-81
2022/01/08 15:43:05;;;;;;;5.72;1.50;;;11.40;90.80;;;;;;5037686;28;20033;-80
2022/01/08 15:45:34;;;;;;;3.25;1.25;;;11.30;90.90;;;;;;5039797;28;20024;-79
2022/01/08 15:48:02;;;;;;;21.65;10.63;;;11.20;90.90;;;;;;5046694;28;20099;-79